Terminal Aerodrome Forecast
Issued by NWS Cleveland, OH

Home | Current Version | Previous Version | Text Only | Print | Product List | Glossary On
Versions: 1 2 3 4 5 6 7 8 9 10 11 12 13 14 15 16 17 18 19 20 21 22 23
000
FTUS41 KCLE 301136
TAFERI
TAF
KERI 301136Z 3012/0112 18006KT 3SM BR OVC025
      TEMPO 3012/3015 6SM BR SCT025 OVC040
     FM301500 22010KT P6SM OVC025
     FM302000 22010KT P6SM -SHRA OVC035
      TEMPO 3020/3024 4SM -TSRA OVC035CB
     FM010100 20005KT P6SM BKN100
     FM010500 20007KT P6SM OVC050
     FM011000 22005KT P6SM OVC007=

USA.gov is the U.S. government's official web portal to all federal, state and local government web resources and services.